createdAt,value
2019-01-29T00:01:31.343Z,100.00
2019-01-29T00:03:59.096Z,99.72
2019-01-29T00:06:26.968Z,99.51
2019-01-29T00:08:54.734Z,99.73
2019-01-29T00:11:22.499Z,99.79
2019-01-29T00:13:50.339Z,99.66
2019-01-29T00:16:18.177Z,99.34
2019-01-29T00:18:45.941Z,99.24
2019-01-29T00:21:13.705Z,98.86
2019-01-29T00:23:41.807Z,98.66
2019-01-29T00:26:09.659Z,98.86
2019-01-29T00:28:37.536Z,98.96
2019-01-29T00:31:05.363Z,99.28
2019-01-29T00:33:33.144Z,99.67
2019-01-29T00:36:01.270Z,99.33
2019-01-29T00:38:29.068Z,99.37
2019-01-29T00:40:56.812Z,99.34
2019-01-29T00:43:24.632Z,99.65
2019-01-29T00:45:52.497Z,99.32
2019-01-29T00:48:20.280Z,99.22
2019-01-29T00:50:48.243Z,99.41
2019-01-29T00:53:16.096Z,99.45
2019-01-29T00:55:43.851Z,99.31
2019-01-29T00:58:11.612Z,97.90
2019-01-29T01:00:39.833Z,97.14
2019-01-29T01:03:07.582Z,97.15
2019-01-29T01:05:35.340Z,97.37
2019-01-29T01:08:03.203Z,97.54
2019-01-29T01:10:31.221Z,97.38
2019-01-29T01:12:59.013Z,97.72
2019-01-29T01:15:26.800Z,97.92
2019-01-29T01:17:54.801Z,98.03
2019-01-29T01:20:22.649Z,97.93
2019-01-29T01:22:51.493Z,97.36
2019-01-29T01:25:19.505Z,97.09
2019-01-29T01:27:47.274Z,97.12
2019-01-29T01:30:16.055Z,97.32
2019-01-29T01:32:43.918Z,97.60
2019-01-29T01:35:11.763Z,97.93
2019-01-29T01:37:39.871Z,98.50
2019-01-29T01:40:09.706Z,98.55
2019-01-29T01:42:37.458Z,98.69
2019-01-29T01:45:06.305Z,99.01
2019-01-29T01:47:34.067Z,99.14
2019-01-29T01:50:01.856Z,99.40
2019-01-29T01:52:29.689Z,98.73
2019-01-29T01:54:57.436Z,98.40
2019-01-29T01:57:25.553Z,98.31
2019-01-29T01:59:53.306Z,98.49
2019-01-29T02:02:21.080Z,98.38
2019-01-29T02:04:48.828Z,98.44
2019-01-29T02:07:16.584Z,98.75
2019-01-29T02:09:44.455Z,98.48
2019-01-29T02:12:12.291Z,98.33
2019-01-29T02:14:40.427Z,98.45
2019-01-29T02:17:08.200Z,98.49
2019-01-29T02:19:35.944Z,98.30
2019-01-29T02:22:03.713Z,97.93
2019-01-29T02:24:31.471Z,97.61
2019-01-29T02:26:59.250Z,96.78
2019-01-29T02:29:26.996Z,96.21
2019-01-29T02:31:54.753Z,95.93
2019-01-29T02:34:22.521Z,95.50
2019-01-29T02:36:50.273Z,95.08
2019-01-29T02:39:18.134Z,95.00
2019-01-29T02:41:46.213Z,95.22
2019-01-29T02:44:13.970Z,95.38
2019-01-29T02:46:41.737Z,94.54
2019-01-29T02:49:09.492Z,94.60
2019-01-29T02:51:37.260Z,95.17
2019-01-29T02:54:05.096Z,94.94
2019-01-29T02:56:32.847Z,94.92
2019-01-29T02:59:00.626Z,95.50
2019-01-29T03:01:28.449Z,95.55
2019-01-29T03:03:56.588Z,95.95
2019-01-29T03:06:24.342Z,96.00
2019-01-29T03:08:52.096Z,95.91
2019-01-29T03:11:19.860Z,96.31
2019-01-29T03:13:47.616Z,96.58
2019-01-29T03:16:15.393Z,96.50
2019-01-29T03:18:43.215Z,96.38
2019-01-29T03:21:11.024Z,96.62
2019-01-29T03:23:38.779Z,96.29
2019-01-29T03:26:06.541Z,95.55
2019-01-29T03:28:34.315Z,95.61
2019-01-29T03:31:02.103Z,95.80
2019-01-29T03:33:29.919Z,95.38
2019-01-29T03:35:58.032Z,95.60
2019-01-29T03:38:25.796Z,96.11
2019-01-29T03:40:53.649Z,96.46
2019-01-29T03:43:21.503Z,96.40
2019-01-29T03:45:49.255Z,96.14
2019-01-29T03:48:17.023Z,95.82
2019-01-29T03:50:44.805Z,94.73
2019-01-29T03:53:12.584Z,94.08
2019-01-29T03:55:40.334Z,94.50
2019-01-29T03:58:08.411Z,94.58
2019-01-29T04:00:36.183Z,94.89
2019-01-29T04:03:04.349Z,94.92
2019-01-29T04:05:32.460Z,95.17
2019-01-29T04:08:00.240Z,95.48
2019-01-29T04:10:27.990Z,95.38
2019-01-29T04:12:55.769Z,95.20
2019-01-29T04:15:23.669Z,95.57
2019-01-29T04:17:55.481Z,96.13
2019-01-29T04:20:24.879Z,96.13
2019-01-29T04:22:52.628Z,96.71
2019-01-29T04:25:20.390Z,96.90
2019-01-29T04:27:48.233Z,97.06
2019-01-29T04:30:17.235Z,97.46
2019-01-29T04:32:44.972Z,97.82
2019-01-29T04:35:12.791Z,97.93
2019-01-29T04:37:40.551Z,98.00
2019-01-29T04:40:09.309Z,98.01
2019-01-29T04:42:37.513Z,98.30
2019-01-29T04:45:06.479Z,99.26
2019-01-29T04:47:34.249Z,100.00
2019-01-29T04:50:02.302Z,100.00
2019-01-29T04:52:30.484Z,100.00
2019-01-29T04:54:58.370Z,100.00
2019-01-29T04:57:26.143Z,100.00
2019-01-29T04:59:53.901Z,100.00
2019-01-29T05:02:21.669Z,100.00
2019-01-29T05:04:49.456Z,100.00
2019-01-29T05:07:17.232Z,100.00
2019-01-29T05:09:44.985Z,99.75
2019-01-29T05:12:12.799Z,99.27
2019-01-29T05:14:40.563Z,99.26
2019-01-29T05:17:08.334Z,99.17
2019-01-29T05:19:36.120Z,99.04
2019-01-29T05:22:04.045Z,98.83
2019-01-29T05:24:31.879Z,98.85
2019-01-29T05:26:59.657Z,99.01
2019-01-29T05:29:27.417Z,99.32
2019-01-29T05:31:55.507Z,99.29
2019-01-29T05:34:23.275Z,99.43
2019-01-29T05:36:51.041Z,99.48
2019-01-29T05:39:18.824Z,99.67
2019-01-29T05:41:46.606Z,99.65
2019-01-29T05:44:14.657Z,99.62
2019-01-29T05:46:42.501Z,99.80
2019-01-29T05:49:10.274Z,99.62
2019-01-29T05:51:38.058Z,99.65
2019-01-29T05:54:05.892Z,99.69
2019-01-29T05:56:35.933Z,99.63
2019-01-29T05:59:03.794Z,99.54
2019-01-29T06:01:31.571Z,99.49
2019-01-29T06:03:59.352Z,99.71
2019-01-29T06:06:27.236Z,99.82
2019-01-29T06:08:55.074Z,100.00
2019-01-29T06:11:22.837Z,100.00
2019-01-29T06:13:51.089Z,100.00
2019-01-29T06:16:18.879Z,100.00
2019-01-29T06:18:47.359Z,100.00
2019-01-29T06:21:15.447Z,100.00
2019-01-29T06:23:43.376Z,100.00
2019-01-29T06:26:11.156Z,100.00
2019-01-29T06:28:38.925Z,100.00
2019-01-29T06:31:06.692Z,100.00
2019-01-29T06:33:34.464Z,100.00
2019-01-29T06:36:02.691Z,100.00
2019-01-29T06:38:30.452Z,100.00
2019-01-29T06:40:58.222Z,100.00
2019-01-29T06:43:25.985Z,100.00
2019-01-29T06:45:53.761Z,100.00
2019-01-29T06:48:21.532Z,100.00
2019-01-29T06:50:49.296Z,100.00
2019-01-29T06:53:17.074Z,100.00
2019-01-29T06:55:44.908Z,99.94
2019-01-29T06:58:12.994Z,99.57
2019-01-29T07:00:40.764Z,99.33
2019-01-29T07:03:08.514Z,99.05
2019-01-29T07:05:36.311Z,98.48
2019-01-29T07:08:04.137Z,98.71
2019-01-29T07:10:32.017Z,97.81
2019-01-29T07:12:59.778Z,96.84
2019-01-29T07:15:52.964Z,96.74
2019-01-29T07:18:42.815Z,95.93
2019-01-29T07:21:11.136Z,96.07
2019-01-29T07:23:38.890Z,96.19
2019-01-29T07:26:06.664Z,95.75
2019-01-29T07:28:34.422Z,96.23
2019-01-29T07:31:02.173Z,95.61
2019-01-29T07:33:29.933Z,94.98
2019-01-29T07:35:57.701Z,94.25
2019-01-29T07:38:25.469Z,94.18
2019-01-29T07:40:53.511Z,94.61
2019-01-29T07:43:21.269Z,94.18
2019-01-29T07:45:49.036Z,93.17
2019-01-29T07:48:16.978Z,92.57
2019-01-29T07:50:44.738Z,92.40
2019-01-29T07:53:12.513Z,92.94
2019-01-29T07:55:40.260Z,93.04
2019-01-29T07:58:08.031Z,92.85
2019-01-29T08:00:35.805Z,93.09
2019-01-29T08:03:03.645Z,93.28
2019-01-29T08:05:31.408Z,92.57
2019-01-29T08:07:59.169Z,92.56
2019-01-29T08:10:26.932Z,92.25
2019-01-29T08:12:56.572Z,92.39
2019-01-29T08:15:24.569Z,92.61
2019-01-29T08:17:52.329Z,93.48
2019-01-29T08:20:20.110Z,92.04
2019-01-29T08:22:47.928Z,90.29
2019-01-29T08:25:15.951Z,90.81
2019-01-29T08:27:44.009Z,90.64
2019-01-29T08:30:11.793Z,91.57
2019-01-29T08:32:39.620Z,90.00
2019-01-29T08:35:07.619Z,89.49
2019-01-29T08:37:35.381Z,89.52
2019-01-29T08:40:03.263Z,89.70
2019-01-29T08:42:31.101Z,89.67
2019-01-29T08:44:58.855Z,89.57
2019-01-29T08:47:26.610Z,89.43
2019-01-29T08:49:54.683Z,88.96
2019-01-29T08:52:22.853Z,89.01
2019-01-29T08:54:50.625Z,87.40
2019-01-29T08:57:18.452Z,86.59
2019-01-29T08:59:46.211Z,86.53
2019-01-29T09:02:14.157Z,88.19
2019-01-29T09:04:41.907Z,87.54
2019-01-29T09:07:09.727Z,87.55
2019-01-29T09:09:37.967Z,85.64
2019-01-29T09:12:05.805Z,87.37
2019-01-29T09:14:33.557Z,86.57
2019-01-29T09:17:01.335Z,86.93
2019-01-29T09:19:29.172Z,87.01
2019-01-29T09:21:56.935Z,86.51
2019-01-29T09:24:24.710Z,86.89
2019-01-29T09:26:52.465Z,87.34
2019-01-29T09:29:20.208Z,87.55
2019-01-29T09:31:47.977Z,86.14
2019-01-29T09:34:16.062Z,86.02
2019-01-29T09:36:43.879Z,86.12
2019-01-29T09:39:11.732Z,86.70
2019-01-29T09:41:39.486Z,85.48
2019-01-29T09:44:07.240Z,85.47
2019-01-29T09:46:35.008Z,85.59
2019-01-29T09:49:02.860Z,85.47
2019-01-29T09:51:30.712Z,85.62
2019-01-29T09:53:58.484Z,84.69
2019-01-29T09:56:27.887Z,86.18
2019-01-29T09:58:55.628Z,83.56
2019-01-29T10:01:23.396Z,84.34
2019-01-29T10:03:51.156Z,83.62
2019-01-29T10:06:18.906Z,84.09
2019-01-29T10:08:46.661Z,82.18
2019-01-29T10:11:14.409Z,83.43
2019-01-29T10:13:42.238Z,84.90
2019-01-29T10:16:10.006Z,84.90
2019-01-29T10:18:37.756Z,84.32
2019-01-29T10:21:05.829Z,84.28
2019-01-29T10:23:33.598Z,83.72
2019-01-29T10:26:01.360Z,84.07
2019-01-29T10:28:29.113Z,82.46
2019-01-29T10:30:56.868Z,83.95
2019-01-29T10:33:24.625Z,81.78
2019-01-29T10:35:52.383Z,81.61
2019-01-29T10:38:20.136Z,81.61
2019-01-29T10:40:47.972Z,80.98
2019-01-29T10:43:15.727Z,80.49
2019-01-29T10:45:43.555Z,79.91
2019-01-29T10:48:11.324Z,79.23
2019-01-29T10:50:39.088Z,79.61
2019-01-29T10:53:06.846Z,79.68
2019-01-29T10:55:34.936Z,77.91
2019-01-29T10:58:02.705Z,77.60
2019-01-29T11:00:31.884Z,77.23
2019-01-29T11:02:59.699Z,76.98
2019-01-29T11:05:27.544Z,77.63
2019-01-29T11:07:55.361Z,76.12
2019-01-29T11:10:23.205Z,76.66
2019-01-29T11:12:50.990Z,77.22
2019-01-29T11:15:21.068Z,79.45
2019-01-29T11:17:48.905Z,78.95
2019-01-29T11:20:16.761Z,78.73
2019-01-29T11:22:45.789Z,77.47
2019-01-29T11:25:15.555Z,76.46
2019-01-29T11:27:43.500Z,77.47
2019-01-29T11:30:11.935Z,78.60
2019-01-29T11:32:39.693Z,77.35
2019-01-29T11:35:07.947Z,76.06
2019-01-29T11:37:35.726Z,74.14
2019-01-29T11:40:03.563Z,72.79
2019-01-29T11:42:31.317Z,76.08
2019-01-29T11:44:59.076Z,77.81
2019-01-29T11:47:26.880Z,72.94
2019-01-29T11:49:54.636Z,74.72
2019-01-29T11:52:22.418Z,74.68
2019-01-29T11:54:50.429Z,74.06
2019-01-29T11:57:18.392Z,74.00
2019-01-29T11:59:46.472Z,74.48
2019-01-29T12:02:14.304Z,71.77
2019-01-29T12:04:42.068Z,72.46
2019-01-29T12:07:09.828Z,72.93
2019-01-29T12:09:37.664Z,72.28
2019-01-29T12:12:05.417Z,72.94
2019-01-29T12:14:33.182Z,71.90
2019-01-29T12:17:01.023Z,71.65
2019-01-29T12:19:28.780Z,72.16
2019-01-29T12:21:56.548Z,73.03
2019-01-29T12:24:24.300Z,71.06
2019-01-29T12:26:52.067Z,71.71
2019-01-29T12:29:19.820Z,74.49
2019-01-29T12:31:47.581Z,73.35
2019-01-29T12:34:15.396Z,73.36
2019-01-29T12:36:43.166Z,73.30
2019-01-29T12:39:11.006Z,75.33
2019-01-29T12:41:38.768Z,73.23
2019-01-29T12:44:06.588Z,73.96
2019-01-29T12:46:34.347Z,75.60
2019-01-29T12:49:02.184Z,73.77
2019-01-29T12:51:47.005Z,73.12
2019-01-29T12:54:14.849Z,73.98
2019-01-29T12:56:42.642Z,74.34
2019-01-29T12:59:10.404Z,73.87
2019-01-29T13:01:38.242Z,74.59
2019-01-29T13:04:06.000Z,72.02
2019-01-29T13:06:33.760Z,72.99
2019-01-29T13:09:01.597Z,74.76
2019-01-29T13:11:29.709Z,74.25
2019-01-29T13:13:57.740Z,72.51
2019-01-29T13:16:25.521Z,72.17
2019-01-29T13:18:53.271Z,73.43
2019-01-29T13:21:21.491Z,73.08
2019-01-29T13:23:49.243Z,73.93
2019-01-29T13:26:17.182Z,73.40
2019-01-29T13:28:45.254Z,73.84
2019-01-29T13:31:13.424Z,74.74
2019-01-29T13:33:41.188Z,75.84
2019-01-29T13:36:09.126Z,77.34
2019-01-29T13:38:36.897Z,77.80
2019-01-29T13:41:04.743Z,76.23
2019-01-29T13:43:32.504Z,75.50
2019-01-29T13:46:00.354Z,73.79
2019-01-29T13:48:28.171Z,75.68
2019-01-29T13:50:56.674Z,74.72
2019-01-29T13:53:24.426Z,74.73
2019-01-29T13:55:52.178Z,74.23
2019-01-29T13:58:20.025Z,74.91
2019-01-29T14:00:47.867Z,75.74
2019-01-29T14:03:16.101Z,75.98
2019-01-29T14:05:43.871Z,75.83
2019-01-29T14:08:11.616Z,75.60
2019-01-29T14:10:39.396Z,74.85
2019-01-29T14:13:07.266Z,74.52
2019-01-29T14:15:39.224Z,75.28
2019-01-29T14:18:06.987Z,75.73
2019-01-29T14:20:34.831Z,75.14
2019-01-29T14:23:02.698Z,76.51
2019-01-29T14:25:30.467Z,77.33
2019-01-29T14:27:58.304Z,75.65
2019-01-29T14:30:26.101Z,76.39
2019-01-29T14:32:54.036Z,77.12
2019-01-29T14:35:22.155Z,76.39
2019-01-29T14:38:18.609Z,77.91
2019-01-29T14:40:46.395Z,77.74
2019-01-29T14:43:14.748Z,76.50
2019-01-29T14:45:42.500Z,76.36
2019-01-29T14:48:10.327Z,76.27
2019-01-29T14:50:38.108Z,76.91
2019-01-29T14:53:05.949Z,78.60
2019-01-29T14:55:33.697Z,77.63
2019-01-29T14:58:01.486Z,76.95
2019-01-29T15:00:29.300Z,76.87
2019-01-29T15:02:57.130Z,75.63
2019-01-29T15:05:24.983Z,76.40
2019-01-29T15:07:52.911Z,77.37
2019-01-29T15:10:20.820Z,76.61
2019-01-29T15:12:50.581Z,75.61
2019-01-29T15:15:18.597Z,76.28
2019-01-29T15:17:50.230Z,77.98
2019-01-29T15:20:18.083Z,78.21
2019-01-29T15:22:45.921Z,78.32
2019-01-29T15:25:13.701Z,79.13
2019-01-29T15:27:41.497Z,78.58
2019-01-29T15:30:13.052Z,80.15
2019-01-29T15:32:40.868Z,82.18
2019-01-29T15:35:09.057Z,80.68
2019-01-29T15:37:36.830Z,80.45
2019-01-29T15:40:05.685Z,80.54
2019-01-29T15:42:33.559Z,79.71
2019-01-29T15:45:01.405Z,79.79
2019-01-29T15:47:29.467Z,80.18
2019-01-29T15:49:57.272Z,80.54
2019-01-29T15:52:25.028Z,79.93
2019-01-29T15:54:53.120Z,81.89
2019-01-29T15:57:20.951Z,81.61
2019-01-29T15:59:48.721Z,82.10
2019-01-29T16:02:16.781Z,83.33
2019-01-29T16:04:44.556Z,83.28
2019-01-29T16:07:12.317Z,82.72
2019-01-29T16:09:40.085Z,84.76
2019-01-29T16:12:07.833Z,83.98
2019-01-29T16:14:36.148Z,84.62
2019-01-29T16:17:03.989Z,85.12
2019-01-29T16:19:31.742Z,84.67
2019-01-29T16:21:59.552Z,85.04
2019-01-29T16:24:27.313Z,84.34
2019-01-29T16:26:55.084Z,84.13
2019-01-29T16:29:24.545Z,84.58
2019-01-29T16:31:52.300Z,84.12
2019-01-29T16:34:20.044Z,84.35
2019-01-29T16:36:48.582Z,84.83
2019-01-29T16:39:16.333Z,83.95
2019-01-29T16:41:44.084Z,84.60
2019-01-29T16:44:11.835Z,84.42
2019-01-29T16:46:39.596Z,84.66
2019-01-29T16:49:07.367Z,84.79
2019-01-29T16:51:41.991Z,86.33
2019-01-29T16:54:04.767Z,85.56
2019-01-29T16:56:32.695Z,85.61
2019-01-29T16:59:01.377Z,86.90
2019-01-29T17:01:29.315Z,85.43
2019-01-29T17:03:57.427Z,85.76
2019-01-29T17:06:25.177Z,85.06
2019-01-29T17:08:52.965Z,86.44
2019-01-29T17:11:20.848Z,86.74
2019-01-29T17:13:49.061Z,86.36
2019-01-29T17:16:16.920Z,86.38
2019-01-29T17:18:44.717Z,85.94
2019-01-29T17:21:12.601Z,86.95
2019-01-29T17:23:41.017Z,86.25
2019-01-29T17:26:08.776Z,85.35
2019-01-29T17:28:36.537Z,86.80
2019-01-29T17:31:04.328Z,85.99
2019-01-29T17:33:32.257Z,86.37
2019-01-29T17:36:00.111Z,85.88
2019-01-29T17:38:27.916Z,86.49
2019-01-29T17:40:55.706Z,85.52
2019-01-29T17:43:23.478Z,86.11
2019-01-29T17:45:51.268Z,86.20
2019-01-29T17:48:19.118Z,86.20
2019-01-29T17:50:46.949Z,86.23
2019-01-29T17:53:15.723Z,86.71
2019-01-29T17:55:43.761Z,86.12
2019-01-29T17:58:12.229Z,86.21
2019-01-29T18:00:41.762Z,86.07
2019-01-29T18:03:09.909Z,85.12
2019-01-29T18:05:37.915Z,86.34
2019-01-29T18:08:05.762Z,86.12
2019-01-29T18:10:33.908Z,85.84
2019-01-29T18:13:01.680Z,85.56
2019-01-29T18:15:29.509Z,85.70
2019-01-29T18:17:57.866Z,85.66
2019-01-29T18:20:26.194Z,86.91
2019-01-29T18:22:53.965Z,86.09
2019-01-29T18:25:21.894Z,86.04
2019-01-29T18:27:49.651Z,87.51
2019-01-29T18:30:18.816Z,87.17
2019-01-29T18:32:46.657Z,86.11
2019-01-29T18:35:14.479Z,86.24
2019-01-29T18:37:42.288Z,86.43
2019-01-29T18:40:11.392Z,85.35
2019-01-29T18:42:39.269Z,86.19
2019-01-29T18:45:07.129Z,86.45
2019-01-29T18:47:34.976Z,87.01
2019-01-29T18:50:02.913Z,86.84
2019-01-29T18:52:30.677Z,86.90
2019-01-29T18:54:59.934Z,87.48
2019-01-29T18:57:28.625Z,87.32
2019-01-29T18:59:57.972Z,87.46
2019-01-29T19:02:26.013Z,87.23
2019-01-29T19:04:53.755Z,86.99
2019-01-29T19:07:21.553Z,88.03
2019-01-29T19:09:49.474Z,86.83
2019-01-29T19:12:17.243Z,87.34
2019-01-29T19:14:45.101Z,87.41
2019-01-29T19:17:12.854Z,87.18
2019-01-29T19:19:40.921Z,85.91
2019-01-29T19:22:08.687Z,87.06
2019-01-29T19:24:36.461Z,87.64
2019-01-29T19:27:04.337Z,87.92
2019-01-29T19:29:32.097Z,87.44
2019-01-29T19:31:59.987Z,87.61
2019-01-29T19:34:27.834Z,88.18
2019-01-29T19:36:55.584Z,87.91
2019-01-29T19:39:23.343Z,88.42
2019-01-29T19:41:51.512Z,87.48
2019-01-29T19:44:19.584Z,87.89
2019-01-29T19:46:47.365Z,87.53
2019-01-29T19:49:15.213Z,87.13
2019-01-29T19:51:42.988Z,88.08
2019-01-29T19:54:10.747Z,88.19
2019-01-29T19:56:38.527Z,89.03
2019-01-29T19:59:07.525Z,89.69
2019-01-29T20:01:35.411Z,89.10
2019-01-29T20:04:03.264Z,89.47
2019-01-29T20:06:31.422Z,89.77
2019-01-29T20:08:59.208Z,88.91
2019-01-29T20:11:26.968Z,89.32
2019-01-29T20:13:54.725Z,89.33
2019-01-29T20:16:22.569Z,90.23
2019-01-29T20:18:50.334Z,89.21
2019-01-29T20:21:18.212Z,89.20
2019-01-29T20:23:45.975Z,89.66
2019-01-29T20:26:13.734Z,89.10
2019-01-29T20:28:42.771Z,89.02
2019-01-29T20:31:10.741Z,89.65
2019-01-29T20:33:38.679Z,90.23
2019-01-29T20:36:06.522Z,89.72
2019-01-29T20:38:35.443Z,89.74
2019-01-29T20:41:03.336Z,89.62
2019-01-29T20:43:31.143Z,89.29
2019-01-29T20:45:59.129Z,88.88
2019-01-29T20:48:26.896Z,89.42
2019-01-29T20:50:54.728Z,89.14
2019-01-29T20:53:23.750Z,89.66
2019-01-29T20:55:51.629Z,89.37
2019-01-29T20:58:19.464Z,88.70
2019-01-29T21:00:47.224Z,89.49
2019-01-29T21:03:14.986Z,88.70
2019-01-29T21:05:42.749Z,88.16
2019-01-29T21:08:10.582Z,87.71
2019-01-29T21:10:39.125Z,87.30
2019-01-29T21:13:06.961Z,87.16
2019-01-29T21:15:38.445Z,87.61
2019-01-29T21:18:04.297Z,87.19
2019-01-29T21:20:32.076Z,86.70
2019-01-29T21:22:59.928Z,87.29
2019-01-29T21:25:28.094Z,86.55
2019-01-29T21:27:55.919Z,86.84
2019-01-29T21:30:35.491Z,86.45
2019-01-29T21:33:03.331Z,86.23
2019-01-29T21:35:33.811Z,87.07
2019-01-29T21:38:01.616Z,86.57
2019-01-29T21:40:29.428Z,86.68
2019-01-29T21:42:57.308Z,85.88
2019-01-29T21:45:25.073Z,85.93
2019-01-29T21:47:53.278Z,86.08
2019-01-29T21:50:22.159Z,86.06
2019-01-29T21:52:51.148Z,86.17
2019-01-29T21:55:19.913Z,85.83
2019-01-29T21:57:50.188Z,87.17
2019-01-29T22:00:20.515Z,86.33
2019-01-29T22:02:49.859Z,85.68
2019-01-29T22:05:20.264Z,86.73
2019-01-29T22:07:48.016Z,86.41
2019-01-29T22:10:15.947Z,86.16
2019-01-29T22:12:43.861Z,86.08
2019-01-29T22:15:12.298Z,86.07
2019-01-29T22:17:40.059Z,86.62
2019-01-29T22:20:08.973Z,86.96
2019-01-29T22:22:36.724Z,87.11
2019-01-29T22:25:05.104Z,86.99
2019-01-29T22:27:32.857Z,87.25
2019-01-29T22:30:00.631Z,87.38
2019-01-29T22:32:28.387Z,87.05
2019-01-29T22:34:56.136Z,86.48
2019-01-29T22:37:23.922Z,86.59
2019-01-29T22:39:51.692Z,86.50
2019-01-29T22:42:19.537Z,86.07
2019-01-29T22:44:47.305Z,85.63
2019-01-29T22:47:15.065Z,86.39
2019-01-29T22:49:43.956Z,85.99
2019-01-29T22:52:11.720Z,85.92
2019-01-29T22:54:39.578Z,85.89
2019-01-29T22:57:07.659Z,86.30
2019-01-29T22:59:35.509Z,85.97
2019-01-29T23:02:03.692Z,86.00
2019-01-29T23:04:33.073Z,85.93
2019-01-29T23:07:14.806Z,85.72
2019-01-29T23:09:42.571Z,85.82
2019-01-29T23:12:10.415Z,85.82
2019-01-29T23:14:38.284Z,85.82
2019-01-29T23:17:06.364Z,85.80
2019-01-29T23:19:34.141Z,85.08
2019-01-29T23:22:01.973Z,85.56
2019-01-29T23:24:29.723Z,85.61
2019-01-29T23:26:57.515Z,85.01
2019-01-29T23:29:25.358Z,84.73
2019-01-29T23:31:53.124Z,86.26
2019-01-29T23:34:20.892Z,86.01
2019-01-29T23:36:48.644Z,86.78
2019-01-29T23:39:16.435Z,85.71
2019-01-29T23:41:44.283Z,86.02
2019-01-29T23:44:12.508Z,85.26
2019-01-29T23:46:40.336Z,84.86
2019-01-29T23:49:08.421Z,85.32
2019-01-29T23:51:36.199Z,86.11
2019-01-29T23:54:04.237Z,85.62
2019-01-29T23:56:32.005Z,85.39
2019-01-29T23:58:59.780Z,84.84
